sensor_id;sensor_type;location;lat;lon;timestamp;pressure;altitude;pressure_sealevel;temperature;humidity
30347;BME280;19047;44.782;20.468;2022-08-19T00:02:06;100124.75;;;29.11;35.64
30347;BME280;19047;44.782;20.468;2022-08-19T00:05:23;100124.56;;;29.09;35.74
30347;BME280;19047;44.782;20.468;2022-08-19T00:08:55;100112.81;;;29.07;35.76
30347;BME280;19047;44.782;20.468;2022-08-19T00:12:13;100113.13;;;29.03;36.09
30347;BME280;19047;44.782;20.468;2022-08-19T00:15:44;100112.13;;;29.01;36.74
30347;BME280;19047;44.782;20.468;2022-08-19T00:19:01;100122.69;;;28.98;37.29
30347;BME280;19047;44.782;20.468;2022-08-19T00:22:31;100124.56;;;28.96;38.06
30347;BME280;19047;44.782;20.468;2022-08-19T00:25:47;100132.97;;;28.94;38.19
30347;BME280;19047;44.782;20.468;2022-08-19T00:29:19;100119.25;;;28.87;38.44
30347;BME280;19047;44.782;20.468;2022-08-19T00:32:36;100133.22;;;28.83;38.90
30347;BME280;19047;44.782;20.468;2022-08-19T00:36:07;100129.66;;;28.77;38.62
30347;BME280;19047;44.782;20.468;2022-08-19T00:39:25;100127.41;;;28.69;38.72
30347;BME280;19047;44.782;20.468;2022-08-19T00:42:55;100127.78;;;28.66;38.65
30347;BME280;19047;44.782;20.468;2022-08-19T00:46:12;100126.09;;;28.57;38.98
30347;BME280;19047;44.782;20.468;2022-08-19T00:49:48;100117.59;;;28.52;38.84
30347;BME280;19047;44.782;20.468;2022-08-19T00:53:10;100117.69;;;28.46;39.11
30347;BME280;19047;44.782;20.468;2022-08-19T00:56:45;100119.13;;;28.40;38.81
30347;BME280;19047;44.782;20.468;2022-08-19T01:00:12;100108.28;;;28.32;39.23
30347;BME280;19047;44.782;20.468;2022-08-19T01:03:47;100108.13;;;28.25;39.06
30347;BME280;19047;44.782;20.468;2022-08-19T01:07:04;100113.22;;;28.19;39.09
30347;BME280;19047;44.782;20.468;2022-08-19T01:10:53;100110.41;;;28.13;39.03
30347;BME280;19047;44.782;20.468;2022-08-19T01:14:14;100114.72;;;28.07;39.41
30347;BME280;19047;44.782;20.468;2022-08-19T01:17:45;100112.72;;;28.02;39.63
30347;BME280;19047;44.782;20.468;2022-08-19T01:21:03;100113.59;;;27.96;39.89
30347;BME280;19047;44.782;20.468;2022-08-19T01:24:39;100113.47;;;27.89;40.17
30347;BME280;19047;44.782;20.468;2022-08-19T01:27:56;100123.72;;;27.84;40.28
30347;BME280;19047;44.782;20.468;2022-08-19T01:31:28;100120.97;;;27.79;40.54
30347;BME280;19047;44.782;20.468;2022-08-19T01:34:48;100108.75;;;27.73;40.66
30347;BME280;19047;44.782;20.468;2022-08-19T01:38:19;100108.09;;;27.67;41.01
30347;BME280;19047;44.782;20.468;2022-08-19T01:41:37;100112.34;;;27.60;41.27
30347;BME280;19047;44.782;20.468;2022-08-19T01:45:07;100111.13;;;27.55;41.56
30347;BME280;19047;44.782;20.468;2022-08-19T01:48:24;100106.75;;;27.49;41.76
30347;BME280;19047;44.782;20.468;2022-08-19T01:51:56;100109.50;;;27.41;41.74
30347;BME280;19047;44.782;20.468;2022-08-19T01:55:15;100121.06;;;27.36;42.12
30347;BME280;19047;44.782;20.468;2022-08-19T01:59:00;100129.75;;;27.30;42.27
30347;BME280;19047;44.782;20.468;2022-08-19T02:02:19;100118.72;;;27.15;42.14
30347;BME280;19047;44.782;20.468;2022-08-19T02:05:53;100119.50;;;27.16;42.48
30347;BME280;19047;44.782;20.468;2022-08-19T02:09:10;100112.31;;;27.09;42.67
30347;BME280;19047;44.782;20.468;2022-08-19T02:12:40;100115.25;;;27.04;42.61
30347;BME280;19047;44.782;20.468;2022-08-19T02:15:57;100107.47;;;26.99;42.67
30347;BME280;19047;44.782;20.468;2022-08-19T02:19:27;100111.75;;;26.92;42.67
30347;BME280;19047;44.782;20.468;2022-08-19T02:22:44;100120.63;;;26.88;42.72
30347;BME280;19047;44.782;20.468;2022-08-19T02:26:17;100122.78;;;26.82;42.84
30347;BME280;19047;44.782;20.468;2022-08-19T02:29:35;100119.47;;;26.78;42.85
30347;BME280;19047;44.782;20.468;2022-08-19T02:33:06;100098.91;;;26.50;43.41
30347;BME280;19047;44.782;20.468;2022-08-19T02:36:30;100125.56;;;26.69;43.61
30347;BME280;19047;44.782;20.468;2022-08-19T02:40:00;100121.97;;;26.63;43.55
30347;BME280;19047;44.782;20.468;2022-08-19T02:43:21;100115.53;;;26.57;43.93
30347;BME280;19047;44.782;20.468;2022-08-19T02:46:53;100082.53;;;26.21;44.00
30347;BME280;19047;44.782;20.468;2022-08-19T02:50:10;100120.56;;;26.51;44.39
30347;BME280;19047;44.782;20.468;2022-08-19T02:53:41;100117.75;;;26.45;45.01
30347;BME280;19047;44.782;20.468;2022-08-19T02:56:58;100114.41;;;26.41;44.98
30347;BME280;19047;44.782;20.468;2022-08-19T03:00:29;100110.81;;;26.35;45.11
30347;BME280;19047;44.782;20.468;2022-08-19T03:03:47;100109.81;;;26.33;45.39
30347;BME280;19047;44.782;20.468;2022-08-19T03:07:18;100120.78;;;26.29;45.49
30347;BME280;19047;44.782;20.468;2022-08-19T03:10:39;100113.09;;;26.12;45.38
30347;BME280;19047;44.782;20.468;2022-08-19T03:14:10;100119.03;;;26.20;45.44
30347;BME280;19047;44.782;20.468;2022-08-19T03:17:28;100120.66;;;26.15;45.73
30347;BME280;19047;44.782;20.468;2022-08-19T03:20:59;100114.59;;;25.95;45.85
30347;BME280;19047;44.782;20.468;2022-08-19T03:24:16;100117.34;;;26.06;45.95
30347;BME280;19047;44.782;20.468;2022-08-19T03:27:48;100120.50;;;26.02;45.94
30347;BME280;19047;44.782;20.468;2022-08-19T03:31:07;100130.69;;;25.98;46.21
30347;BME280;19047;44.782;20.468;2022-08-19T03:34:40;100127.59;;;25.96;46.19
30347;BME280;19047;44.782;20.468;2022-08-19T03:38:00;100132.31;;;25.93;46.07
30347;BME280;19047;44.782;20.468;2022-08-19T03:41:36;100131.03;;;25.89;46.19
30347;BME280;19047;44.782;20.468;2022-08-19T03:44:53;100131.31;;;25.85;46.23
30347;BME280;19047;44.782;20.468;2022-08-19T03:48:24;100128.22;;;25.83;46.27
30347;BME280;19047;44.782;20.468;2022-08-19T03:51:43;100135.81;;;25.80;46.18
30347;BME280;19047;44.782;20.468;2022-08-19T03:55:15;100145.47;;;25.77;46.31
30347;BME280;19047;44.782;20.468;2022-08-19T03:58:32;100134.31;;;25.74;46.43
30347;BME280;19047;44.782;20.468;2022-08-19T04:02:07;100136.13;;;25.71;46.43
30347;BME280;19047;44.782;20.468;2022-08-19T04:05:26;100150.22;;;25.69;46.48
30347;BME280;19047;44.782;20.468;2022-08-19T04:08:58;100148.66;;;25.68;46.55
30347;BME280;19047;44.782;20.468;2022-08-19T04:12:16;100165.84;;;25.68;46.81
30347;BME280;19047;44.782;20.468;2022-08-19T04:15:46;100157.78;;;25.67;46.92
30347;BME280;19047;44.782;20.468;2022-08-19T04:19:04;100152.81;;;25.67;46.97
30347;BME280;19047;44.782;20.468;2022-08-19T04:22:34;100150.75;;;25.68;47.12
30347;BME280;19047;44.782;20.468;2022-08-19T04:25:51;100150.22;;;25.69;47.28
30347;BME280;19047;44.782;20.468;2022-08-19T04:29:22;100147.59;;;25.71;47.16
30347;BME280;19047;44.782;20.468;2022-08-19T04:32:41;100157.22;;;25.74;47.16
30347;BME280;19047;44.782;20.468;2022-08-19T04:36:19;100156.91;;;25.77;47.53
30347;BME280;19047;44.782;20.468;2022-08-19T04:39:36;100153.78;;;25.81;47.26
30347;BME280;19047;44.782;20.468;2022-08-19T04:43:25;100154.50;;;25.87;47.38
30347;BME280;19047;44.782;20.468;2022-08-19T04:46:42;100161.50;;;25.92;47.39
30347;BME280;19047;44.782;20.468;2022-08-19T04:50:12;100162.22;;;25.98;47.49
30347;BME280;19047;44.782;20.468;2022-08-19T04:53:29;100160.88;;;26.04;47.41
30347;BME280;19047;44.782;20.468;2022-08-19T04:57:00;100153.78;;;26.11;47.24
30347;BME280;19047;44.782;20.468;2022-08-19T05:00:17;100158.38;;;26.19;47.30
30347;BME280;19047;44.782;20.468;2022-08-19T05:03:47;100154.44;;;26.28;47.24
30347;BME280;19047;44.782;20.468;2022-08-19T05:07:04;100121.19;;;26.14;46.99
30347;BME280;19047;44.782;20.468;2022-08-19T05:10:39;100147.69;;;26.50;46.81
30347;BME280;19047;44.782;20.468;2022-08-19T05:14:00;100140.28;;;26.60;46.88
30347;BME280;19047;44.782;20.468;2022-08-19T05:17:31;100140.16;;;26.71;46.42
30347;BME280;19047;44.782;20.468;2022-08-19T05:20:48;100142.34;;;26.84;46.49
30347;BME280;19047;44.782;20.468;2022-08-19T05:24:37;100140.38;;;26.98;46.28
30347;BME280;19047;44.782;20.468;2022-08-19T05:27:54;100143.81;;;27.15;46.01
30347;BME280;19047;44.782;20.468;2022-08-19T05:31:27;100153.53;;;27.31;45.30
30347;BME280;19047;44.782;20.468;2022-08-19T05:34:44;100150.97;;;27.46;44.85
30347;BME280;19047;44.782;20.468;2022-08-19T05:38:16;100150.19;;;27.64;44.63
30347;BME280;19047;44.782;20.468;2022-08-19T05:41:33;100145.72;;;27.82;43.99
30347;BME280;19047;44.782;20.468;2022-08-19T05:45:05;100154.31;;;28.01;43.97
30347;BME280;19047;44.782;20.468;2022-08-19T05:48:22;100149.31;;;28.20;43.53
30347;BME280;19047;44.782;20.468;2022-08-19T05:51:52;100145.78;;;28.40;43.17
30347;BME280;19047;44.782;20.468;2022-08-19T05:55:10;100145.13;;;28.60;42.74
30347;BME280;19047;44.782;20.468;2022-08-19T05:58:44;100145.50;;;28.83;42.70
30347;BME280;19047;44.782;20.468;2022-08-19T06:02:02;100137.94;;;29.07;42.15
30347;BME280;19047;44.782;20.468;2022-08-19T06:05:33;100135.56;;;29.31;41.81
30347;BME280;19047;44.782;20.468;2022-08-19T06:08:50;100146.81;;;29.56;41.69
30347;BME280;19047;44.782;20.468;2022-08-19T06:12:20;100147.84;;;29.79;41.33
30347;BME280;19047;44.782;20.468;2022-08-19T06:15:42;100153.88;;;30.02;40.91
30347;BME280;19047;44.782;20.468;2022-08-19T06:19:13;100153.84;;;30.23;40.62
30347;BME280;19047;44.782;20.468;2022-08-19T06:22:31;100166.69;;;30.42;40.65
30347;BME280;19047;44.782;20.468;2022-08-19T06:26:10;100170.13;;;30.62;40.15
30347;BME280;19047;44.782;20.468;2022-08-19T06:29:28;100156.78;;;30.79;40.04
30347;BME280;19047;44.782;20.468;2022-08-19T06:32:58;100159.75;;;30.95;39.75
30347;BME280;19047;44.782;20.468;2022-08-19T06:36:23;100153.53;;;31.11;39.51
30347;BME280;19047;44.782;20.468;2022-08-19T06:39:58;100165.91;;;31.27;39.20
30347;BME280;19047;44.782;20.468;2022-08-19T06:43:15;100161.53;;;31.41;38.94
30347;BME280;19047;44.782;20.468;2022-08-19T06:46:45;100145.59;;;31.55;38.73
30347;BME280;19047;44.782;20.468;2022-08-19T06:50:02;100149.13;;;31.69;38.75
30347;BME280;19047;44.782;20.468;2022-08-19T06:53:33;100152.63;;;31.83;38.40
30347;BME280;19047;44.782;20.468;2022-08-19T06:56:50;100155.91;;;31.95;38.02
30347;BME280;19047;44.782;20.468;2022-08-19T07:00:22;100161.53;;;32.08;37.94
30347;BME280;19047;44.782;20.468;2022-08-19T07:03:39;100166.41;;;32.20;37.78
30347;BME280;19047;44.782;20.468;2022-08-19T07:07:10;100155.97;;;32.33;37.63
30347;BME280;19047;44.782;20.468;2022-08-19T07:10:28;100161.38;;;32.44;37.71
30347;BME280;19047;44.782;20.468;2022-08-19T07:13:58;100168.91;;;32.54;37.42
30347;BME280;19047;44.782;20.468;2022-08-19T07:17:15;100172.16;;;32.66;37.17
30347;BME280;19047;44.782;20.468;2022-08-19T07:20:45;100164.44;;;32.76;37.06
30347;BME280;19047;44.782;20.468;2022-08-19T07:24:02;100169.06;;;32.87;37.20
30347;BME280;19047;44.782;20.468;2022-08-19T07:27:33;100163.44;;;32.96;36.62
30347;BME280;19047;44.782;20.468;2022-08-19T07:30:50;100175.97;;;33.07;36.81
30347;BME280;19047;44.782;20.468;2022-08-19T07:34:22;100168.38;;;33.19;36.76
30347;BME280;19047;44.782;20.468;2022-08-19T07:37:40;100167.78;;;33.28;36.24
30347;BME280;19047;44.782;20.468;2022-08-19T07:41:11;100169.66;;;33.41;36.20
30347;BME280;19047;44.782;20.468;2022-08-19T07:44:28;100168.63;;;33.53;36.01
30347;BME280;19047;44.782;20.468;2022-08-19T07:47:59;100168.78;;;33.63;36.35
30347;BME280;19047;44.782;20.468;2022-08-19T07:51:18;100167.56;;;33.74;36.34
30347;BME280;19047;44.782;20.468;2022-08-19T07:54:49;100151.72;;;33.75;35.77
30347;BME280;19047;44.782;20.468;2022-08-19T07:58:06;100151.53;;;33.97;35.85
30347;BME280;19047;44.782;20.468;2022-08-19T08:01:35;100150.50;;;34.10;35.99
30347;BME280;19047;44.782;20.468;2022-08-19T08:04:56;100141.69;;;34.25;35.35
30347;BME280;19047;44.782;20.468;2022-08-19T08:08:45;100132.25;;;34.42;35.34
30347;BME280;19047;44.782;20.468;2022-08-19T08:12:22;100131.84;;;34.63;34.92
30347;BME280;19047;44.782;20.468;2022-08-19T08:15:53;100135.28;;;34.86;35.01
30347;BME280;19047;44.782;20.468;2022-08-19T08:19:20;100136.16;;;35.13;34.99
30347;BME280;19047;44.782;20.468;2022-08-19T08:22:51;100097.56;;;35.30;34.66
30347;BME280;19047;44.782;20.468;2022-08-19T08:26:31;100123.94;;;35.86;34.00
30347;BME280;19047;44.782;20.468;2022-08-19T08:30:05;100127.00;;;36.25;33.68
30347;BME280;19047;44.782;20.468;2022-08-19T08:33:36;100126.00;;;36.68;33.15
30347;BME280;19047;44.782;20.468;2022-08-19T08:36:53;100106.59;;;37.09;32.51
30347;BME280;19047;44.782;20.468;2022-08-19T08:43:50;100122.31;;;38.14;31.12
30347;BME280;19047;44.782;20.468;2022-08-19T08:47:22;100128.31;;;38.68;30.54
30347;BME280;19047;44.782;20.468;2022-08-19T08:50:44;100128.19;;;39.21;29.82
30347;BME280;19047;44.782;20.468;2022-08-19T08:54:17;100130.91;;;39.73;29.45
30347;BME280;19047;44.782;20.468;2022-08-19T09:01:17;100088.28;;;40.40;28.38
30347;BME280;19047;44.782;20.468;2022-08-19T09:04:36;100122.19;;;41.29;27.75
30347;BME280;19047;44.782;20.468;2022-08-19T09:08:14;100116.16;;;41.77;27.30
30347;BME280;19047;44.782;20.468;2022-08-19T09:11:47;100112.22;;;42.25;26.96
30347;BME280;19047;44.782;20.468;2022-08-19T09:15:28;100106.22;;;42.78;26.32
30347;BME280;19047;44.782;20.468;2022-08-19T09:18:51;100061.47;;;42.95;25.94
30347;BME280;19047;44.782;20.468;2022-08-19T09:22:23;100061.97;;;43.51;25.50
30347;BME280;19047;44.782;20.468;2022-08-19T09:25:43;100091.69;;;44.02;24.96
30347;BME280;19047;44.782;20.468;2022-08-19T09:29:15;100109.44;;;44.35;24.44
30347;BME280;19047;44.782;20.468;2022-08-19T09:32:33;100062.03;;;44.47;24.50
30347;BME280;19047;44.782;20.468;2022-08-19T09:36:07;100095.50;;;44.87;23.92
30347;BME280;19047;44.782;20.468;2022-08-19T09:39:25;100095.28;;;45.17;23.72
30347;BME280;19047;44.782;20.468;2022-08-19T09:42:58;100097.16;;;45.45;23.02
30347;BME280;19047;44.782;20.468;2022-08-19T09:46:19;100087.78;;;45.69;22.88
30347;BME280;19047;44.782;20.468;2022-08-19T09:49:50;100088.22;;;45.99;22.78
30347;BME280;19047;44.782;20.468;2022-08-19T09:53:07;100080.94;;;46.22;22.63
30347;BME280;19047;44.782;20.468;2022-08-19T09:56:37;100076.53;;;46.42;22.09
30347;BME280;19047;44.782;20.468;2022-08-19T09:59:55;100080.91;;;46.61;21.66
30347;BME280;19047;44.782;20.468;2022-08-19T10:03:29;100080.78;;;46.79;21.21
30347;BME280;19047;44.782;20.468;2022-08-19T10:06:46;100066.66;;;46.99;21.19
30347;BME280;19047;44.782;20.468;2022-08-19T10:10:17;100059.28;;;47.22;20.66
30347;BME280;19047;44.782;20.468;2022-08-19T10:13:35;100059.19;;;47.42;20.65
30347;BME280;19047;44.782;20.468;2022-08-19T10:17:05;100058.38;;;47.63;20.02
30347;BME280;19047;44.782;20.468;2022-08-19T10:20:23;100042.16;;;47.66;20.04
30347;BME280;19047;44.782;20.468;2022-08-19T10:23:56;100056.38;;;47.96;19.62
30347;BME280;19047;44.782;20.468;2022-08-19T10:27:14;100031.00;;;47.88;19.60
30347;BME280;19047;44.782;20.468;2022-08-19T10:30:45;100042.22;;;48.18;19.27
30347;BME280;19047;44.782;20.468;2022-08-19T10:34:05;100024.22;;;48.10;19.15
30347;BME280;19047;44.782;20.468;2022-08-19T10:37:36;100049.31;;;48.60;18.77
30347;BME280;19047;44.782;20.468;2022-08-19T10:40:54;100047.56;;;48.79;19.05
30347;BME280;19047;44.782;20.468;2022-08-19T10:44:26;100019.66;;;48.90;18.66
30347;BME280;19047;44.782;20.468;2022-08-19T10:47:44;100055.41;;;49.24;18.35
30347;BME280;19047;44.782;20.468;2022-08-19T10:51:16;100049.78;;;49.39;17.89
30347;BME280;19047;44.782;20.468;2022-08-19T10:54:52;100035.91;;;49.49;17.83
30347;BME280;19047;44.782;20.468;2022-08-19T10:58:40;100013.69;;;49.50;17.89
30347;BME280;19047;44.782;20.468;2022-08-19T11:02:01;100017.03;;;49.68;17.68
30347;BME280;19047;44.782;20.468;2022-08-19T11:05:32;100021.81;;;49.84;17.45
30347;BME280;19047;44.782;20.468;2022-08-19T11:08:53;100021.34;;;49.95;17.29
30347;BME280;19047;44.782;20.468;2022-08-19T11:12:25;100011.13;;;50.07;16.85
30347;BME280;19047;44.782;20.468;2022-08-19T11:15:44;100010.50;;;50.12;17.30
30347;BME280;19047;44.782;20.468;2022-08-19T11:19:16;99973.22;;;50.07;16.80
30347;BME280;19047;44.782;20.468;2022-08-19T11:22:35;99968.13;;;50.14;16.83
30347;BME280;19047;44.782;20.468;2022-08-19T11:26:06;100005.81;;;50.41;16.55
30347;BME280;19047;44.782;20.468;2022-08-19T11:29:26;99995.59;;;50.50;16.71
30347;BME280;19047;44.782;20.468;2022-08-19T11:32:57;99995.06;;;50.62;16.68
30347;BME280;19047;44.782;20.468;2022-08-19T11:36:19;99988.47;;;50.67;16.36
30347;BME280;19047;44.782;20.468;2022-08-19T11:39:50;99987.81;;;50.75;16.42
30347;BME280;19047;44.782;20.468;2022-08-19T11:43:07;99979.72;;;50.80;16.17
30347;BME280;19047;44.782;20.468;2022-08-19T11:46:40;99984.28;;;50.87;16.15
30347;BME280;19047;44.782;20.468;2022-08-19T11:49:57;99977.69;;;50.90;16.05
30347;BME280;19047;44.782;20.468;2022-08-19T11:53:29;99978.50;;;50.95;16.15
30347;BME280;19047;44.782;20.468;2022-08-19T11:56:46;99976.28;;;50.97;15.97
30347;BME280;19047;44.782;20.468;2022-08-19T12:00:17;99967.38;;;50.99;15.83
30347;BME280;19047;44.782;20.468;2022-08-19T12:03:35;99973.31;;;50.97;15.73
30347;BME280;19047;44.782;20.468;2022-08-19T12:07:05;99968.72;;;50.88;15.81
30347;BME280;19047;44.782;20.468;2022-08-19T12:10:23;99972.19;;;50.74;15.60
30347;BME280;19047;44.782;20.468;2022-08-19T12:13:54;99978.56;;;50.55;15.80
30347;BME280;19047;44.782;20.468;2022-08-19T12:17:11;99953.50;;;50.26;16.02
30347;BME280;19047;44.782;20.468;2022-08-19T12:20:42;99966.41;;;50.00;15.96
30347;BME280;19047;44.782;20.468;2022-08-19T12:24:00;99961.34;;;49.71;16.02
30347;BME280;19047;44.782;20.468;2022-08-19T12:27:35;99956.13;;;49.35;15.98
30347;BME280;19047;44.782;20.468;2022-08-19T12:30:52;99962.03;;;49.02;15.96
30347;BME280;19047;44.782;20.468;2022-08-19T12:34:23;99954.53;;;48.67;16.22
30347;BME280;19047;44.782;20.468;2022-08-19T12:37:40;99952.94;;;48.34;16.81
30347;BME280;19047;44.782;20.468;2022-08-19T12:41:12;99948.38;;;48.03;16.80
30347;BME280;19047;44.782;20.468;2022-08-19T12:44:30;99946.00;;;47.71;16.97
30347;BME280;19047;44.782;20.468;2022-08-19T12:48:00;99942.91;;;47.41;16.94
30347;BME280;19047;44.782;20.468;2022-08-19T12:51:17;99936.81;;;47.11;17.31
30347;BME280;19047;44.782;20.468;2022-08-19T12:54:52;99929.25;;;46.82;17.31
30347;BME280;19047;44.782;20.468;2022-08-19T12:58:10;99919.91;;;46.46;17.47
30347;BME280;19047;44.782;20.468;2022-08-19T13:01:54;99918.38;;;46.24;17.81
30347;BME280;19047;44.782;20.468;2022-08-19T13:05:16;99917.41;;;45.95;17.96
30347;BME280;19047;44.782;20.468;2022-08-19T13:08:47;99916.41;;;45.69;18.29
30347;BME280;19047;44.782;20.468;2022-08-19T13:12:04;99917.69;;;45.44;18.24
30347;BME280;19047;44.782;20.468;2022-08-19T13:15:37;99924.25;;;45.23;18.57
30347;BME280;19047;44.782;20.468;2022-08-19T13:19:01;99910.22;;;45.03;18.56
30347;BME280;19047;44.782;20.468;2022-08-19T13:22:36;99916.00;;;44.82;18.59
30347;BME280;19047;44.782;20.468;2022-08-19T13:25:57;99915.81;;;44.60;18.91
30347;BME280;19047;44.782;20.468;2022-08-19T13:29:26;99915.75;;;44.40;18.68
30347;BME280;19047;44.782;20.468;2022-08-19T13:33:05;99912.78;;;44.22;18.91
30347;BME280;19047;44.782;20.468;2022-08-19T13:36:39;99920.25;;;44.08;19.04
30347;BME280;19047;44.782;20.468;2022-08-19T13:39:59;99914.47;;;43.94;18.89
30347;BME280;19047;44.782;20.468;2022-08-19T13:43:30;99914.63;;;43.80;19.42
30347;BME280;19047;44.782;20.468;2022-08-19T13:46:47;99920.53;;;43.64;19.27
30347;BME280;19047;44.782;20.468;2022-08-19T13:50:22;99894.63;;;43.45;19.24
30347;BME280;19047;44.782;20.468;2022-08-19T13:53:45;99860.72;;;42.97;19.45
30347;BME280;19047;44.782;20.468;2022-08-19T13:57:15;99899.28;;;43.19;19.46
30347;BME280;19047;44.782;20.468;2022-08-19T14:00:34;99888.44;;;43.08;19.69
30347;BME280;19047;44.782;20.468;2022-08-19T14:04:07;99861.16;;;42.76;19.94
30347;BME280;19047;44.782;20.468;2022-08-19T14:07:24;99891.56;;;42.80;20.00
30347;BME280;19047;44.782;20.468;2022-08-19T14:10:55;99853.72;;;42.43;20.08
30347;BME280;19047;44.782;20.468;2022-08-19T14:14:12;99892.53;;;42.55;19.93
30347;BME280;19047;44.782;20.468;2022-08-19T14:17:44;99872.06;;;42.28;20.13
30347;BME280;19047;44.782;20.468;2022-08-19T14:21:06;99895.22;;;42.36;19.83
30347;BME280;19047;44.782;20.468;2022-08-19T14:24:37;99901.34;;;42.26;20.08
30347;BME280;19047;44.782;20.468;2022-08-19T14:27:56;99901.59;;;42.16;20.35
30347;BME280;19047;44.782;20.468;2022-08-19T14:31:26;99895.09;;;42.04;20.39
30347;BME280;19047;44.782;20.468;2022-08-19T14:34:43;99894.56;;;41.94;20.48
30347;BME280;19047;44.782;20.468;2022-08-19T14:38:15;99907.97;;;41.83;20.55
30347;BME280;19047;44.782;20.468;2022-08-19T14:41:33;99899.47;;;41.76;20.55
30347;BME280;19047;44.782;20.468;2022-08-19T14:45:02;99894.59;;;41.67;20.52
30347;BME280;19047;44.782;20.468;2022-08-19T14:48:22;99892.00;;;41.59;20.70
30347;BME280;19047;44.782;20.468;2022-08-19T14:51:52;99892.28;;;41.51;20.69
30347;BME280;19047;44.782;20.468;2022-08-19T14:55:09;99888.81;;;41.41;20.58
30347;BME280;19047;44.782;20.468;2022-08-19T14:58:41;99895.66;;;41.32;20.58
30347;BME280;19047;44.782;20.468;2022-08-19T15:01:59;99898.16;;;41.24;20.48
30347;BME280;19047;44.782;20.468;2022-08-19T15:05:28;99897.19;;;41.19;20.58
30347;BME280;19047;44.782;20.468;2022-08-19T15:08:49;99899.88;;;41.15;20.50
30347;BME280;19047;44.782;20.468;2022-08-19T15:12:18;99898.84;;;41.11;20.67
30347;BME280;19047;44.782;20.468;2022-08-19T15:15:36;99903.75;;;41.06;20.69
30347;BME280;19047;44.782;20.468;2022-08-19T15:19:05;99909.94;;;40.99;20.92
30347;BME280;19047;44.782;20.468;2022-08-19T15:22:25;99908.81;;;40.92;20.91
30347;BME280;19047;44.782;20.468;2022-08-19T15:25:55;99908.38;;;40.84;21.02
30347;BME280;19047;44.782;20.468;2022-08-19T15:29:13;99921.81;;;40.75;21.21
30347;BME280;19047;44.782;20.468;2022-08-19T15:32:43;99921.22;;;40.65;21.24
30347;BME280;19047;44.782;20.468;2022-08-19T15:36:01;99923.56;;;40.55;21.72
30347;BME280;19047;44.782;20.468;2022-08-19T15:39:32;99922.22;;;40.44;21.61
30347;BME280;19047;44.782;20.468;2022-08-19T15:42:51;99921.50;;;40.32;22.16
30347;BME280;19047;44.782;20.468;2022-08-19T15:46:23;99929.69;;;40.22;22.72
30347;BME280;19047;44.782;20.468;2022-08-19T15:49:44;99926.03;;;40.10;23.08
30347;BME280;19047;44.782;20.468;2022-08-19T15:53:14;99931.91;;;39.98;23.29
30347;BME280;19047;44.782;20.468;2022-08-19T15:56:31;99931.81;;;39.85;23.86
30347;BME280;19047;44.782;20.468;2022-08-19T16:00:20;99957.16;;;39.68;23.73
30347;BME280;19047;44.782;20.468;2022-08-19T16:03:57;99973.06;;;39.54;24.22
30347;BME280;19047;44.782;20.468;2022-08-19T16:07:48;99961.72;;;39.36;24.03
30347;BME280;19047;44.782;20.468;2022-08-19T16:11:06;99978.34;;;39.22;24.51
30347;BME280;19047;44.782;20.468;2022-08-19T16:14:35;100006.56;;;39.06;24.58
30347;BME280;19047;44.782;20.468;2022-08-19T16:17:54;100012.22;;;38.92;24.78
30347;BME280;19047;44.782;20.468;2022-08-19T16:21:28;100024.22;;;38.75;25.06
30347;BME280;19047;44.782;20.468;2022-08-19T16:24:48;100029.94;;;38.52;25.74
30347;BME280;19047;44.782;20.468;2022-08-19T16:28:19;100047.00;;;38.34;25.84
30347;BME280;19047;44.782;20.468;2022-08-19T16:31:38;100073.56;;;38.17;26.32
30347;BME280;19047;44.782;20.468;2022-08-19T16:35:09;100078.34;;;37.81;26.28
30347;BME280;19047;44.782;20.468;2022-08-19T16:38:26;100111.22;;;37.82;26.41
30347;BME280;19047;44.782;20.468;2022-08-19T16:41:58;100082.91;;;37.34;26.62
30347;BME280;19047;44.782;20.468;2022-08-19T16:45:15;100121.91;;;37.39;26.66
30347;BME280;19047;44.782;20.468;2022-08-19T16:48:48;100132.06;;;37.18;27.03
30347;BME280;19047;44.782;20.468;2022-08-19T16:52:10;100148.03;;;36.98;27.03
30347;BME280;19047;44.782;20.468;2022-08-19T16:55:41;100152.16;;;36.76;27.25
30347;BME280;19047;44.782;20.468;2022-08-19T16:58:58;100153.47;;;36.55;27.70
30347;BME280;19047;44.782;20.468;2022-08-19T17:02:29;100162.00;;;36.34;27.95
30347;BME280;19047;44.782;20.468;2022-08-19T17:05:50;100158.06;;;36.12;27.85
30347;BME280;19047;44.782;20.468;2022-08-19T17:09:20;100147.56;;;35.90;27.80
30347;BME280;19047;44.782;20.468;2022-08-19T17:12:40;100150.00;;;35.67;27.75
30347;BME280;19047;44.782;20.468;2022-08-19T17:16:11;100142.38;;;35.44;27.48
30347;BME280;19047;44.782;20.468;2022-08-19T17:19:28;100134.69;;;35.22;27.27
30347;BME280;19047;44.782;20.468;2022-08-19T17:23:00;100125.63;;;35.01;27.55
30347;BME280;19047;44.782;20.468;2022-08-19T17:26:16;100120.28;;;34.80;27.49
30347;BME280;19047;44.782;20.468;2022-08-19T17:29:47;100108.84;;;34.57;27.51
30347;BME280;19047;44.782;20.468;2022-08-19T17:33:04;100111.00;;;34.39;27.91
30347;BME280;19047;44.782;20.468;2022-08-19T17:36:35;100110.13;;;34.22;28.00
30347;BME280;19047;44.782;20.468;2022-08-19T17:39:53;100104.88;;;34.03;27.87
30347;BME280;19047;44.782;20.468;2022-08-19T17:43:23;100112.94;;;33.87;28.46
30347;BME280;19047;44.782;20.468;2022-08-19T17:46:40;100109.34;;;33.71;28.47
30347;BME280;19047;44.782;20.468;2022-08-19T17:50:10;100113.88;;;33.57;28.42
30347;BME280;19047;44.782;20.468;2022-08-19T17:53:29;100105.44;;;33.44;28.91